Terminal Aerodrome Forecast
Issued by NWS

Home | Current Version | Previous Version | Text Only | Print | Product List | Glossary On
Versions: 1 2 3 4 5 6 7 8 9 10 11 12 13 14 15 16 17 18 19 20 21 22 23 24
298
FTUS41 KILN 060534
TAFLCK
TAF
KLCK 060534Z 0606/0706 09007KT P6SM BKN200
     FM061100 09009KT P6SM VCSH OVC080
     FM061300 10009KT 6SM -RA OVC030
     FM061500 10009KT 3SM -RA OVC010
     FM061800 11006KT 1SM -RA BR OVC006
     FM062200 02004KT P6SM VCSH OVC006
     FM070000 29012G20KT P6SM -DZ OVC007=

USA.gov is the U.S. government's official web portal to all federal, state and local government web resources and services.